Saturday, November 17, 2018, 2:00 AM EST
Back to Local

KFZY, Fulton Oswego County Airport

Location: Fulton, NY, United States Lat: 43.35
Local Time: 2:00 AM EST ( 7:00 GMT) Lon: -76.383
Time Zone: US/Eastern Elev: 475 ft

Show me the last for .
Show Decoded

2018-11-17 00:54 METAR KFZY 170554Z AUTO 24008KT 7SM OVC019 02/M02 A2991 RMK AO2 SLP133 60006
                 T00221017 10022 20017 51018 =
2018-11-16 23:54 METAR KFZY 170454Z AUTO 24009KT 8SM OVC017 02/M02 A2989 RMK AO2 SLP127 T00221017
                 400221033 =
2018-11-16 22:54 METAR KFZY 170354Z AUTO 24011KT 9SM OVC018 02/M02 A2988 RMK AO2 SLP122 T00221017
                 =
2018-11-16 21:54 METAR KFZY 170254Z AUTO 24010G21KT 9SM OVC016 02/M02 A2986 RMK AO2 SLP115 60006
                 T00221017 51021 =
2018-11-16 20:54 METAR KFZY 170154Z AUTO 24011G16KT 8SM OVC019 02/M02 A2983 RMK AO2 SLP107 P0001
                 T00221017 =
2018-11-16 19:54 METAR KFZY 170054Z AUTO 24011KT 9SM OVC023 02/M02 A2982 RMK AO2 SNE07 SLP102
                 P0005 T00221017 =
2018-11-16 19:41 METAR KFZY 170041Z AUTO 25010KT 10SM BKN022 OVC038 02/M02 A2981 RMK AO2 SNE07
                 P0004 T00221017 =
2018-11-16 19:19 METAR KFZY 170019Z AUTO 25011KT 9SM SCT022 OVC038 02/M02 A2980 RMK AO2 SNE07
                 P0002 T00171017 =
2018-11-16 18:54 METAR KFZY 162354Z AUTO 25016KT 6SM -SN OVC022 02/M02 A2979 RMK AO2
                 UPB38E41SNB41 SLP094 P0001 60021 I6000 T00221022 10022 20006 53016 =
2018-11-16 17:54 METAR KFZY 162254Z AUTO 24011KT 10SM OVC024 02/M02 A2977 RMK AO2 SLP085 P0003
                 T00221017 =
2018-11-16 17:39 METAR KFZY 162239Z AUTO 25011KT 10SM FEW019 BKN024 OVC065 02/M02 A2976 RMK AO2
                 P0003 T00221017 =
2018-11-16 17:26 METAR KFZY 162226Z AUTO 24009KT 10SM SCT022 BKN048 OVC065 02/M01 A2976 RMK AO2
                 P0003 T00221011 =
2018-11-16 16:54 METAR KFZY 162154Z AUTO 24010KT 10SM FEW012 SCT017 OVC023 02/M01 A2974 RMK AO2
                 RAE31 SLP077 P0006 I1000 T00171011 =
2018-11-16 16:51 METAR KFZY 162151Z AUTO 25011KT 10SM SCT012 BKN017 OVC023 02/M01 A2974 RMK AO2
                 RAE31 P0006 I1000 =
2018-11-16 15:54 METAR KFZY 162054Z AUTO 25012KT 10SM -RA BKN010 OVC016 02/M01 A2973 RMK AO2
                 UPE32RAB20 SLP072 P0006 60011 T00171006 53015 =
2018-11-16 14:54 METAR KFZY 161954Z AUTO 25012KT 7SM UP BKN010 OVC030 02/M01 A2970 RMK AO2
                 UPB49SNE49 SLP063 P0003 T00171011 =
2018-11-16 14:27 METAR KFZY 161927Z AUTO 24014G21KT 3SM -SN BKN008 BKN011 OVC021 02/M01 A2970 RMK
                 AO2 P0001 T00171011 =
2018-11-16 14:08 METAR KFZY 161908Z AUTO 24011G17KT 1 1/2SM -SN BR OVC006 01/M01 A2970 RMK AO2
                 P0001 T00111011 =
2018-11-16 13:54 METAR KFZY 161854Z AUTO 24009KT 1SM -SN BR OVC006 01/M01 A2970 RMK AO2 SLP060
                 P0002 T00111011 =
2018-11-16 13:38 METAR KFZY 161838Z AUTO 24011KT 1 1/4SM -SN BR OVC006 01/M01 A2969 RMK AO2 P0001
                 T00111011 =
2018-11-16 13:08 METAR KFZY 161808Z AUTO 24011KT 1SM -SN OVC006 01/M02 A2969 RMK AO2 P0000
                 T00111017 =
2018-11-16 12:54 METAR KFZY 161754Z AUTO 23008KT 1 3/4SM -SN BR OVC006 01/M02 A2968 RMK AO2
                 SLP058 P0002 60004 I6001 T00061017 10006 21022 58010 =
2018-11-16 12:33 METAR KFZY 161733Z AUTO 19005KT 1 1/4SM -SN BR OVC006 00/M02 A2968 RMK AO2 P0001
                 T00001017 =
2018-11-16 12:13 METAR KFZY 161713Z AUTO 20005KT 3/4SM -SN BR OVC006 00/M02 A2969 RMK AO2 P0001
                 T00001022 =
2018-11-16 12:09 METAR KFZY 161709Z AUTO 20006KT 1 1/4SM -SN BR OVC006 00/M02 A2969 RMK AO2 P0001
                 T00001022 =
2018-11-16 11:54 METAR KFZY 161654Z AUTO 19006KT 2 1/2SM -SN OVC006 00/M03 A2969 RMK AO2
                 UPE1556FZRAB1556E01SNB44 SLP061 P0002 I1000 T00001028 =
2018-11-16 11:13 METAR KFZY 161613Z AUTO 18004KT 4SM BR BKN007 OVC050 M01/M02 A2970 RMK AO2
                 UPE1556FZRAB1556E01 P0000 I1000 T10061022 =
2018-11-16 10:54 METAR KFZY 161554Z AUTO 22006KT 2 1/2SM UP OVC006 M01/M03 A2971 RMK AO2 UPB52
                 SLP065 P0000 I1000 T10061033 =
2018-11-16 10:11 METAR KFZY 161511Z AUTO 20006KT 3SM BR OVC006 M01/M03 A2972 RMK AO2 T10111033 =
2018-11-16 10:04 METAR KFZY 161504Z AUTO 21007KT 2SM BR OVC005 M01/M03 A2972 RMK AO2 CIG 004V008
                 T10111033 =
2018-11-16 09:54 METAR KFZY 161454Z AUTO 20007KT 3SM BR BKN005 OVC010 M01/M03 A2972 RMK AO2 CIG
                 004V008 SLP068 60000 I3001 T10111033 58001 =
2018-11-16 09:22 METAR KFZY 161422Z AUTO 18006KT 3SM BR OVC005 M01/M03 A2972 RMK AO2 T10111033 =
2018-11-16 08:54 METAR KFZY 161354Z AUTO 17005KT 1 3/4SM BR BKN005 OVC012 M01/M03 A2972 RMK AO2
                 SNE12B40E54 SLP069 P0000 I1001 T10111033 =
2018-11-16 08:50 METAR KFZY 161350Z AUTO 18004KT 1 1/2SM -SN BR BKN006 OVC012 M01/M03 A2972 RMK
                 AO2 SNE12B40 P0000 I1001 =
2018-11-16 08:42 METAR KFZY 161342Z AUTO 18006KT 1 1/4SM -SN BR SCT006 BKN012 OVC018 M01/M03
                 A2972 RMK AO2 SNE12B40 P0000 I1001 T10111033 =
2018-11-16 08:32 METAR KFZY 161332Z AUTO 18005KT 2 1/2SM BR FEW006 BKN012 OVC018 M01/M03 A2973
                 RMK AO2 SNE12 P0000 T10111033 =
2018-11-16 08:12 METAR KFZY 161312Z AUTO 18007KT 3SM BR BKN019 BKN027 OVC034 M02/M04 A2972 RMK
                 AO2 SNE12 P0000 T10171039 =
2018-11-16 07:54 METAR KFZY 161254Z AUTO VRB04KT 4SM -SN BR FEW025 BKN038 OVC045 M02/M04 A2972
                 RMK AO2 SLP069 P0000 T10171039 =
2018-11-16 07:37 METAR KFZY 161237Z AUTO 13003KT 3SM -SN BR BKN040 OVC047 M02/M04 A2971 RMK AO2
                 P0000 T10171039 =
2018-11-16 07:14 METAR KFZY 161214Z AUTO 00000KT 2 1/2SM -SN BR FEW029 OVC040 M02/M04 A2972 RMK
                 AO2 P0000 T10221044 =
2018-11-16 06:54 METAR KFZY 161154Z AUTO VRB03KT 4SM -SN BR SCT031 OVC038 M02/M04 A2972 RMK AO2
                 SLP071 P0000 60000 T10221044 11022 21033 58028 =
2018-11-16 06:17 METAR KFZY 161117Z AUTO VRB03KT 4SM -SN BR OVC036 M02/M04 A2974 RMK AO2 P0000
                 T10221044 =
2018-11-16 05:54 METAR KFZY 161054Z AUTO 00000KT 2SM -SN BR OVC034 M02/M04 A2976 RMK AO2 SLP082
                 P0000 T10221044 =
2018-11-16 05:46 METAR KFZY 161046Z AUTO 00000KT 1 3/4SM -SN BR OVC034 M02/M04 A2976 RMK AO2
                 P0000 T10221044 =
2018-11-16 05:37 METAR KFZY 161037Z AUTO 00000KT 2SM -SN BR OVC030 M02/M04 A2976 RMK AO2 P0000
                 T10221044 =
2018-11-16 05:24 METAR KFZY 161024Z AUTO 00000KT 1 1/2SM -SN BR OVC022 M02/M04 A2976 RMK AO2
                 P0000 T10221044 =
2018-11-16 05:17 METAR KFZY 161017Z AUTO 00000KT 1SM -SN BR VV015 M02/M04 A2977 RMK AO2 P0000
                 T10221044 =
2018-11-16 05:09 METAR KFZY 161009Z AUTO 00000KT 3/4SM -SN BR VV011 M02/M04 A2977 RMK AO2 P0000
                 T10221044 =
2018-11-16 04:54 METAR KFZY 160954Z AUTO 00000KT 3/4SM -SN BR VV009 M02/M04 A2978 RMK AO2 SLP090
                 P0000 T10221044 =
2018-11-16 03:54 METAR KFZY 160854Z AUTO 00000KT 1/4SM +SN FZFG VV006 M02/M04 A2981 RMK AO2
                 SLP100 P0000 60000 T10221044 58015 =
2018-11-16 03:43 METAR KFZY 160843Z AUTO 00000KT 1/2SM SN FZFG VV008 M02/M04 A2981 RMK AO2 P0000
                 T10221039 =
2018-11-16 03:30 METAR KFZY 160830Z AUTO 00000KT 1/2SM SN FZFG VV011 M02/M04 A2982 RMK AO2 P0000
                 T10221044 =
2018-11-16 03:23 METAR KFZY 160823Z AUTO 04003KT 1SM -SN BR VV014 M02/M04 A2982 RMK AO2 P0000
                 T10221044 =
2018-11-16 03:14 METAR KFZY 160814Z AUTO 00000KT 1 1/2SM -SN BR BKN018 OVC027 M02/M04 A2982 RMK
                 AO2 P0000 T10221044 =
2018-11-16 03:03 METAR KFZY 160803Z AUTO 00000KT 1SM -SN BR BKN016 OVC027 M02/M04 A2982 RMK AO2
                 P0000 T10221044 =
2018-11-16 02:54 METAR KFZY 160754Z AUTO 00000KT 1 1/4SM -SN BR BKN012 OVC027 M02/M04 A2982 RMK
                 AO2 SLP105 P0000 T10221044 =
2018-11-16 02:47 METAR KFZY 160747Z AUTO 00000KT 1SM -SN BR BKN010 OVC027 M02/M04 A2983 RMK AO2
                 P0000 T10221044 =
2018-11-16 02:01 METAR KFZY 160701Z AUTO 00000KT 1/2SM SN FZFG VV008 M02/M04 A2985 RMK AO2 P0000
                 T10221044 =

Support USWX by starting your Amazon purchase here.